sensor_id;sensor_type;location;lat;lon;timestamp;pressure;altitude;pressure_sealevel;temperature;humidity
51369;BME280;37459;51.416;5.502;2022-07-01T00:00:27;101093.66;;;13.85;100.00
51369;BME280;37459;51.416;5.502;2022-07-01T00:02:53;101087.88;;;13.82;100.00
51369;BME280;37459;51.416;5.502;2022-07-01T00:05:20;101093.66;;;13.85;100.00
51369;BME280;37459;51.416;5.502;2022-07-01T00:07:47;101091.63;;;13.81;100.00
51369;BME280;37459;51.416;5.502;2022-07-01T00:10:14;101090.66;;;13.75;100.00
51369;BME280;37459;51.416;5.502;2022-07-01T00:12:40;101075.66;;;13.72;100.00
51369;BME280;37459;51.416;5.502;2022-07-01T00:15:08;101080.47;;;13.70;100.00
51369;BME280;37459;51.416;5.502;2022-07-01T00:17:36;101073.41;;;13.69;100.00
51369;BME280;37459;51.416;5.502;2022-07-01T00:20:03;101062.19;;;13.66;100.00
51369;BME280;37459;51.416;5.502;2022-07-01T00:22:30;101083.03;;;13.65;100.00
51369;BME280;37459;51.416;5.502;2022-07-01T00:24:56;101076.41;;;13.61;100.00
51369;BME280;37459;51.416;5.502;2022-07-01T00:27:23;101081.00;;;13.61;100.00
51369;BME280;37459;51.416;5.502;2022-07-01T00:29:49;101064.22;;;13.52;100.00
51369;BME280;37459;51.416;5.502;2022-07-01T00:32:16;101054.66;;;13.49;100.00
51369;BME280;37459;51.416;5.502;2022-07-01T00:34:44;101054.81;;;13.54;100.00
51369;BME280;37459;51.416;5.502;2022-07-01T00:37:10;101057.13;;;13.51;100.00
51369;BME280;37459;51.416;5.502;2022-07-01T00:39:37;101062.25;;;13.59;100.00
51369;BME280;37459;51.416;5.502;2022-07-01T00:42:04;101063.78;;;13.73;100.00
51369;BME280;37459;51.416;5.502;2022-07-01T00:44:31;101053.09;;;13.60;100.00
51369;BME280;37459;51.416;5.502;2022-07-01T00:47:00;101047.44;;;13.62;100.00
51369;BME280;37459;51.416;5.502;2022-07-01T00:49:28;101055.34;;;13.63;100.00
51369;BME280;37459;51.416;5.502;2022-07-01T00:51:56;101063.47;;;13.63;100.00
51369;BME280;37459;51.416;5.502;2022-07-01T00:54:24;101064.91;;;13.66;100.00
51369;BME280;37459;51.416;5.502;2022-07-01T00:56:51;101051.06;;;13.55;100.00
51369;BME280;37459;51.416;5.502;2022-07-01T00:59:18;101061.44;;;13.59;100.00
51369;BME280;37459;51.416;5.502;2022-07-01T01:01:44;101061.91;;;13.55;100.00
51369;BME280;37459;51.416;5.502;2022-07-01T01:04:11;101074.38;;;13.56;100.00
51369;BME280;37459;51.416;5.502;2022-07-01T01:06:37;101090.78;;;13.62;100.00
51369;BME280;37459;51.416;5.502;2022-07-01T01:09:05;101085.88;;;13.70;100.00
51369;BME280;37459;51.416;5.502;2022-07-01T01:11:32;101090.13;;;13.66;100.00
51369;BME280;37459;51.416;5.502;2022-07-01T01:13:58;101095.75;;;13.65;100.00
51369;BME280;37459;51.416;5.502;2022-07-01T01:16:25;101103.28;;;13.63;100.00
51369;BME280;37459;51.416;5.502;2022-07-01T01:18:52;101101.38;;;13.63;100.00
51369;BME280;37459;51.416;5.502;2022-07-01T01:21:20;101112.22;;;13.63;100.00
51369;BME280;37459;51.416;5.502;2022-07-01T01:23:46;101118.41;;;13.70;100.00
51369;BME280;37459;51.416;5.502;2022-07-01T01:26:17;101114.50;;;13.66;100.00
51369;BME280;37459;51.416;5.502;2022-07-01T01:28:45;101098.47;;;13.65;100.00
51369;BME280;37459;51.416;5.502;2022-07-01T01:31:11;101107.19;;;13.67;100.00
51369;BME280;37459;51.416;5.502;2022-07-01T01:33:38;101108.84;;;13.68;100.00
51369;BME280;37459;51.416;5.502;2022-07-01T01:36:05;101102.22;;;13.64;100.00
51369;BME280;37459;51.416;5.502;2022-07-01T01:38:35;101098.69;;;13.63;100.00
51369;BME280;37459;51.416;5.502;2022-07-01T01:41:02;101114.31;;;13.61;100.00
51369;BME280;37459;51.416;5.502;2022-07-01T01:43:28;101116.81;;;13.63;100.00
51369;BME280;37459;51.416;5.502;2022-07-01T01:45:55;101101.00;;;13.60;100.00
51369;BME280;37459;51.416;5.502;2022-07-01T01:48:21;101101.38;;;13.63;100.00
51369;BME280;37459;51.416;5.502;2022-07-01T01:50:48;101089.94;;;13.61;100.00
51369;BME280;37459;51.416;5.502;2022-07-01T01:53:14;101088.31;;;13.60;100.00
51369;BME280;37459;51.416;5.502;2022-07-01T01:55:42;101106.06;;;13.56;100.00
51369;BME280;37459;51.416;5.502;2022-07-01T01:58:09;101104.31;;;13.62;100.00
51369;BME280;37459;51.416;5.502;2022-07-01T02:00:35;101111.75;;;13.48;100.00
51369;BME280;37459;51.416;5.502;2022-07-01T02:03:02;101107.09;;;13.55;100.00
51369;BME280;37459;51.416;5.502;2022-07-01T02:05:30;101115.09;;;13.68;100.00
51369;BME280;37459;51.416;5.502;2022-07-01T02:07:56;101124.50;;;13.66;100.00
51369;BME280;37459;51.416;5.502;2022-07-01T02:10:23;101130.16;;;13.64;100.00
51369;BME280;37459;51.416;5.502;2022-07-01T02:12:53;101127.25;;;13.59;100.00
51369;BME280;37459;51.416;5.502;2022-07-01T02:15:20;101132.53;;;13.54;100.00
51369;BME280;37459;51.416;5.502;2022-07-01T02:17:46;101147.56;;;13.50;100.00
51369;BME280;37459;51.416;5.502;2022-07-01T02:20:13;101149.50;;;13.43;100.00
51369;BME280;37459;51.416;5.502;2022-07-01T02:22:40;101150.72;;;13.47;100.00
51369;BME280;37459;51.416;5.502;2022-07-01T02:25:08;101151.09;;;13.50;100.00
51369;BME280;37459;51.416;5.502;2022-07-01T02:27:34;101130.25;;;13.51;100.00
51369;BME280;37459;51.416;5.502;2022-07-01T02:30:03;101113.78;;;13.52;100.00
51369;BME280;37459;51.416;5.502;2022-07-01T02:32:31;101106.56;;;13.46;100.00
51369;BME280;37459;51.416;5.502;2022-07-01T02:34:57;101103.34;;;13.56;100.00
51369;BME280;37459;51.416;5.502;2022-07-01T02:37:24;101124.19;;;13.55;100.00
51369;BME280;37459;51.416;5.502;2022-07-01T02:39:50;101116.88;;;13.56;100.00
51369;BME280;37459;51.416;5.502;2022-07-01T02:42:17;101115.81;;;13.57;100.00
51369;BME280;37459;51.416;5.502;2022-07-01T02:44:54;101129.06;;;13.47;100.00
51369;BME280;37459;51.416;5.502;2022-07-01T02:47:22;101134.16;;;13.37;100.00
51369;BME280;37459;51.416;5.502;2022-07-01T02:49:49;101133.28;;;13.43;100.00
51369;BME280;37459;51.416;5.502;2022-07-01T02:52:17;101137.47;;;13.39;100.00
51369;BME280;37459;51.416;5.502;2022-07-01T02:54:43;101139.09;;;13.40;100.00
51369;BME280;37459;51.416;5.502;2022-07-01T02:57:09;101138.06;;;13.41;100.00
51369;BME280;37459;51.416;5.502;2022-07-01T02:59:36;101134.09;;;13.43;100.00
51369;BME280;37459;51.416;5.502;2022-07-01T03:02:04;101142.44;;;13.42;100.00
51369;BME280;37459;51.416;5.502;2022-07-01T03:04:32;101146.13;;;13.47;100.00
51369;BME280;37459;51.416;5.502;2022-07-01T03:06:59;101137.41;;;13.45;100.00
51369;BME280;37459;51.416;5.502;2022-07-01T03:09:25;101144.09;;;13.43;100.00
51369;BME280;37459;51.416;5.502;2022-07-01T03:11:52;101153.19;;;13.48;100.00
51369;BME280;37459;51.416;5.502;2022-07-01T03:14:18;101155.97;;;13.42;100.00
51369;BME280;37459;51.416;5.502;2022-07-01T03:16:45;101155.00;;;13.36;100.00
51369;BME280;37459;51.416;5.502;2022-07-01T03:19:12;101156.69;;;13.30;100.00
51369;BME280;37459;51.416;5.502;2022-07-01T03:21:40;101162.06;;;13.37;100.00
51369;BME280;37459;51.416;5.502;2022-07-01T03:24:06;101163.56;;;13.26;100.00
51369;BME280;37459;51.416;5.502;2022-07-01T03:26:33;101156.63;;;13.37;100.00
51369;BME280;37459;51.416;5.502;2022-07-01T03:28:59;101150.59;;;13.35;100.00
51369;BME280;37459;51.416;5.502;2022-07-01T03:31:26;101167.88;;;13.41;100.00
51369;BME280;37459;51.416;5.502;2022-07-01T03:33:52;101176.66;;;13.36;100.00
51369;BME280;37459;51.416;5.502;2022-07-01T03:36:19;101189.94;;;13.38;100.00
51369;BME280;37459;51.416;5.502;2022-07-01T03:38:46;101186.41;;;13.37;100.00
51369;BME280;37459;51.416;5.502;2022-07-01T03:41:13;101182.44;;;13.40;100.00
51369;BME280;37459;51.416;5.502;2022-07-01T03:43:39;101195.25;;;13.51;100.00
51369;BME280;37459;51.416;5.502;2022-07-01T03:46:06;101213.19;;;13.52;100.00
51369;BME280;37459;51.416;5.502;2022-07-01T03:48:38;101210.06;;;13.48;100.00
51369;BME280;37459;51.416;5.502;2022-07-01T03:51:05;101210.72;;;13.44;100.00
51369;BME280;37459;51.416;5.502;2022-07-01T03:53:32;101208.59;;;13.52;100.00
51369;BME280;37459;51.416;5.502;2022-07-01T03:56:19;101211.50;;;13.51;100.00
51369;BME280;37459;51.416;5.502;2022-07-01T03:58:46;101208.22;;;13.49;100.00
51369;BME280;37459;51.416;5.502;2022-07-01T04:01:12;101203.72;;;13.36;100.00
51369;BME280;37459;51.416;5.502;2022-07-01T04:03:39;101201.63;;;13.38;100.00
51369;BME280;37459;51.416;5.502;2022-07-01T04:06:05;101200.13;;;13.42;100.00
51369;BME280;37459;51.416;5.502;2022-07-01T04:08:32;101199.13;;;13.37;100.00
51369;BME280;37459;51.416;5.502;2022-07-01T04:10:58;101191.16;;;13.42;100.00
51369;BME280;37459;51.416;5.502;2022-07-01T04:13:27;101204.09;;;13.40;100.00
51369;BME280;37459;51.416;5.502;2022-07-01T04:15:53;101207.81;;;13.45;100.00
51369;BME280;37459;51.416;5.502;2022-07-01T04:18:20;101213.28;;;13.39;100.00
51369;BME280;37459;51.416;5.502;2022-07-01T04:20:47;101209.16;;;13.36;100.00
51369;BME280;37459;51.416;5.502;2022-07-01T04:23:33;101204.09;;;13.40;100.00
51369;BME280;37459;51.416;5.502;2022-07-01T04:25:59;101199.69;;;13.45;100.00
51369;BME280;37459;51.416;5.502;2022-07-01T04:28:26;101197.41;;;13.42;100.00
51369;BME280;37459;51.416;5.502;2022-07-01T04:30:53;101206.13;;;13.44;100.00
51369;BME280;37459;51.416;5.502;2022-07-01T04:33:19;101209.09;;;13.43;100.00
51369;BME280;37459;51.416;5.502;2022-07-01T04:35:46;101214.94;;;13.40;100.00
51369;BME280;37459;51.416;5.502;2022-07-01T04:38:12;101212.94;;;13.28;100.00
51369;BME280;37459;51.416;5.502;2022-07-01T04:40:39;101216.88;;;13.32;100.00
51369;BME280;37459;51.416;5.502;2022-07-01T04:43:05;101225.75;;;13.40;100.00
51369;BME280;37459;51.416;5.502;2022-07-01T04:45:32;101225.59;;;13.34;100.00
51369;BME280;37459;51.416;5.502;2022-07-01T04:47:59;101226.22;;;13.37;100.00
51369;BME280;37459;51.416;5.502;2022-07-01T04:50:25;101232.84;;;13.41;100.00
51369;BME280;37459;51.416;5.502;2022-07-01T04:52:51;101225.34;;;13.43;100.00
51369;BME280;37459;51.416;5.502;2022-07-01T04:55:18;101219.94;;;13.43;100.00
51369;BME280;37459;51.416;5.502;2022-07-01T04:57:44;101227.59;;;13.46;100.00
51369;BME280;37459;51.416;5.502;2022-07-01T05:00:11;101225.66;;;13.53;100.00
51369;BME280;37459;51.416;5.502;2022-07-01T05:02:39;101230.88;;;13.54;100.00
51369;BME280;37459;51.416;5.502;2022-07-01T05:05:07;101239.38;;;13.58;100.00
51369;BME280;37459;51.416;5.502;2022-07-01T05:07:33;101236.88;;;13.56;100.00
51369;BME280;37459;51.416;5.502;2022-07-01T05:10:00;101235.25;;;13.55;100.00
51369;BME280;37459;51.416;5.502;2022-07-01T05:12:26;101235.00;;;13.57;100.00
51369;BME280;37459;51.416;5.502;2022-07-01T05:14:53;101233.31;;;13.63;100.00
51369;BME280;37459;51.416;5.502;2022-07-01T05:17:19;101230.59;;;13.63;100.00
51369;BME280;37459;51.416;5.502;2022-07-01T05:20:08;101217.25;;;13.61;100.00
51369;BME280;37459;51.416;5.502;2022-07-01T05:22:52;101216.84;;;13.64;100.00
51369;BME280;37459;51.416;5.502;2022-07-01T05:25:19;101236.84;;;13.63;100.00
51369;BME280;37459;51.416;5.502;2022-07-01T05:27:46;101237.66;;;13.64;100.00
51369;BME280;37459;51.416;5.502;2022-07-01T05:30:13;101228.59;;;13.51;100.00
51369;BME280;37459;51.416;5.502;2022-07-01T05:32:39;101228.31;;;13.60;100.00
51369;BME280;37459;51.416;5.502;2022-07-01T05:35:07;101221.34;;;13.70;100.00
51369;BME280;37459;51.416;5.502;2022-07-01T05:37:34;101224.50;;;13.92;100.00
51369;BME280;37459;51.416;5.502;2022-07-01T05:40:00;101210.66;;;14.01;100.00
51369;BME280;37459;51.416;5.502;2022-07-01T05:42:27;101215.97;;;14.14;100.00
51369;BME280;37459;51.416;5.502;2022-07-01T05:44:53;101221.22;;;14.27;100.00
51369;BME280;37459;51.416;5.502;2022-07-01T05:47:20;101224.44;;;14.17;100.00
51369;BME280;37459;51.416;5.502;2022-07-01T05:49:46;101227.22;;;14.11;100.00
51369;BME280;37459;51.416;5.502;2022-07-01T05:52:14;101236.19;;;14.11;100.00
51369;BME280;37459;51.416;5.502;2022-07-01T05:54:40;101229.72;;;14.31;100.00
51369;BME280;37459;51.416;5.502;2022-07-01T05:57:07;101225.22;;;14.43;100.00
51369;BME280;37459;51.416;5.502;2022-07-01T05:59:35;101228.66;;;14.50;100.00
51369;BME280;37459;51.416;5.502;2022-07-01T06:02:01;101228.88;;;14.55;100.00
51369;BME280;37459;51.416;5.502;2022-07-01T06:04:28;101229.75;;;14.49;100.00
51369;BME280;37459;51.416;5.502;2022-07-01T06:06:54;101229.28;;;14.34;100.00
51369;BME280;37459;51.416;5.502;2022-07-01T06:09:22;101237.34;;;14.41;100.00
51369;BME280;37459;51.416;5.502;2022-07-01T06:11:49;101242.84;;;14.34;100.00
51369;BME280;37459;51.416;5.502;2022-07-01T06:14:15;101248.00;;;14.61;100.00
51369;BME280;37459;51.416;5.502;2022-07-01T06:16:42;101245.34;;;14.54;100.00
51369;BME280;37459;51.416;5.502;2022-07-01T06:19:08;101245.56;;;14.52;100.00
51369;BME280;37459;51.416;5.502;2022-07-01T06:21:35;101237.66;;;14.51;100.00
51369;BME280;37459;51.416;5.502;2022-07-01T06:24:02;101233.22;;;14.38;100.00
51369;BME280;37459;51.416;5.502;2022-07-01T06:26:30;101228.09;;;14.30;100.00
51369;BME280;37459;51.416;5.502;2022-07-01T06:28:56;101233.22;;;14.38;100.00
51369;BME280;37459;51.416;5.502;2022-07-01T06:31:22;101222.19;;;14.33;100.00
51369;BME280;37459;51.416;5.502;2022-07-01T06:33:49;101223.63;;;14.35;100.00
51369;BME280;37459;51.416;5.502;2022-07-01T06:36:16;101232.75;;;14.41;100.00
51369;BME280;37459;51.416;5.502;2022-07-01T06:38:42;101222.97;;;14.40;100.00
51369;BME280;37459;51.416;5.502;2022-07-01T06:41:09;101231.84;;;14.47;100.00
51369;BME280;37459;51.416;5.502;2022-07-01T06:43:56;101235.31;;;14.54;100.00
51369;BME280;37459;51.416;5.502;2022-07-01T06:46:23;101225.91;;;14.57;100.00
51369;BME280;37459;51.416;5.502;2022-07-01T06:48:49;101226.91;;;14.63;99.95
51369;BME280;37459;51.416;5.502;2022-07-01T06:51:16;101226.69;;;14.64;98.56
51369;BME280;37459;51.416;5.502;2022-07-01T06:53:42;101222.91;;;14.65;98.63
51369;BME280;37459;51.416;5.502;2022-07-01T06:56:10;101227.03;;;14.68;97.88
51369;BME280;37459;51.416;5.502;2022-07-01T06:58:36;101231.13;;;14.77;96.68
51369;BME280;37459;51.416;5.502;2022-07-01T07:01:04;101230.16;;;14.83;96.50
51369;BME280;37459;51.416;5.502;2022-07-01T07:03:31;101229.25;;;14.89;94.70
51369;BME280;37459;51.416;5.502;2022-07-01T07:05:58;101242.53;;;14.97;94.86
51369;BME280;37459;51.416;5.502;2022-07-01T07:08:25;101243.81;;;14.95;93.81
51369;BME280;37459;51.416;5.502;2022-07-01T07:10:52;101261.66;;;15.03;96.26
51369;BME280;37459;51.416;5.502;2022-07-01T07:13:18;101265.44;;;15.02;94.58
51369;BME280;37459;51.416;5.502;2022-07-01T07:15:45;101262.13;;;14.99;95.00
51369;BME280;37459;51.416;5.502;2022-07-01T07:18:13;101262.69;;;14.90;91.72
51369;BME280;37459;51.416;5.502;2022-07-01T07:20:39;101254.47;;;14.78;93.23
51369;BME280;37459;51.416;5.502;2022-07-01T07:23:06;101256.88;;;14.86;94.13
51369;BME280;37459;51.416;5.502;2022-07-01T07:25:32;101251.81;;;14.90;94.57
51369;BME280;37459;51.416;5.502;2022-07-01T07:27:59;101259.28;;;14.94;94.29
51369;BME280;37459;51.416;5.502;2022-07-01T07:30:25;101266.63;;;15.06;92.50
51369;BME280;37459;51.416;5.502;2022-07-01T07:32:52;101261.66;;;15.03;92.38
51369;BME280;37459;51.416;5.502;2022-07-01T07:35:20;101271.59;;;15.09;92.33
51369;BME280;37459;51.416;5.502;2022-07-01T07:37:46;101273.13;;;15.05;93.71
51369;BME280;37459;51.416;5.502;2022-07-01T07:40:12;101285.94;;;14.97;93.30
51369;BME280;37459;51.416;5.502;2022-07-01T07:42:44;101285.94;;;14.97;95.22
51369;BME280;37459;51.416;5.502;2022-07-01T07:45:11;101285.56;;;14.94;94.29
51369;BME280;37459;51.416;5.502;2022-07-01T07:47:41;101291.97;;;14.99;92.22
51369;BME280;37459;51.416;5.502;2022-07-01T07:50:09;101288.81;;;15.03;91.54
51369;BME280;37459;51.416;5.502;2022-07-01T07:52:37;101294.31;;;15.14;92.59
51369;BME280;37459;51.416;5.502;2022-07-01T07:55:05;101287.47;;;15.24;90.20
51369;BME280;37459;51.416;5.502;2022-07-01T07:57:32;101289.19;;;15.36;89.01
51369;BME280;37459;51.416;5.502;2022-07-01T07:59:59;101298.13;;;15.55;87.06
51369;BME280;37459;51.416;5.502;2022-07-01T08:02:26;101291.38;;;15.58;83.29
51369;BME280;37459;51.416;5.502;2022-07-01T08:04:52;101288.53;;;15.53;82.41
51369;BME280;37459;51.416;5.502;2022-07-01T08:07:19;101300.50;;;15.64;80.44
51369;BME280;37459;51.416;5.502;2022-07-01T08:09:47;101307.78;;;15.81;79.68
51369;BME280;37459;51.416;5.502;2022-07-01T08:12:14;101312.50;;;15.74;81.58
51369;BME280;37459;51.416;5.502;2022-07-01T08:14:41;101316.63;;;15.77;79.66
51369;BME280;37459;51.416;5.502;2022-07-01T08:17:08;101304.47;;;15.79;77.75
51369;BME280;37459;51.416;5.502;2022-07-01T08:19:34;101316.75;;;15.94;78.32
51369;BME280;37459;51.416;5.502;2022-07-01T08:22:01;101330.94;;;15.96;77.43
51369;BME280;37459;51.416;5.502;2022-07-01T08:24:28;101332.50;;;16.15;77.61
51369;BME280;37459;51.416;5.502;2022-07-01T08:26:56;101322.69;;;16.14;77.96
51369;BME280;37459;51.416;5.502;2022-07-01T08:29:22;101325.69;;;16.48;77.03
51369;BME280;37459;51.416;5.502;2022-07-01T08:31:49;101325.03;;;16.70;74.71
51369;BME280;37459;51.416;5.502;2022-07-01T08:34:15;101329.53;;;16.76;73.29
51369;BME280;37459;51.416;5.502;2022-07-01T08:36:42;101329.19;;;16.72;75.14
51369;BME280;37459;51.416;5.502;2022-07-01T08:39:08;101332.50;;;16.62;73.49
51369;BME280;37459;51.416;5.502;2022-07-01T08:41:35;101332.41;;;16.81;72.76
51369;BME280;37459;51.416;5.502;2022-07-01T08:44:03;101335.44;;;16.96;73.30
51369;BME280;37459;51.416;5.502;2022-07-01T08:46:29;101341.16;;;17.23;73.30
51369;BME280;37459;51.416;5.502;2022-07-01T08:48:56;101341.44;;;17.68;72.09
51369;BME280;37459;51.416;5.502;2022-07-01T08:51:22;101349.25;;;17.93;66.44
51369;BME280;37459;51.416;5.502;2022-07-01T08:53:49;101356.13;;;18.12;67.08
51369;BME280;37459;51.416;5.502;2022-07-01T08:56:15;101360.75;;;18.45;65.47
51369;BME280;37459;51.416;5.502;2022-07-01T08:59:00;101363.25;;;18.86;64.74
51369;BME280;37459;51.416;5.502;2022-07-01T09:01:28;101370.00;;;19.00;61.78
51369;BME280;37459;51.416;5.502;2022-07-01T09:03:56;101345.47;;;19.05;63.76
51369;BME280;37459;51.416;5.502;2022-07-01T09:06:38;101368.25;;;19.38;61.64
51369;BME280;37459;51.416;5.502;2022-07-01T09:09:10;101352.63;;;19.34;59.98
51369;BME280;37459;51.416;5.502;2022-07-01T09:11:44;101361.94;;;19.11;62.08
51369;BME280;37459;51.416;5.502;2022-07-01T09:14:12;101370.13;;;19.11;60.86
51369;BME280;37459;51.416;5.502;2022-07-01T09:16:44;101359.13;;;19.05;64.05
51369;BME280;37459;51.416;5.502;2022-07-01T09:19:11;101367.47;;;19.16;62.84
51369;BME280;37459;51.416;5.502;2022-07-01T09:21:39;101360.72;;;19.01;61.31
51369;BME280;37459;51.416;5.502;2022-07-01T09:24:22;101372.59;;;19.12;59.33
51369;BME280;37459;51.416;5.502;2022-07-01T09:26:52;101366.50;;;19.05;63.00
51369;BME280;37459;51.416;5.502;2022-07-01T09:29:18;101378.06;;;18.90;58.69
51369;BME280;37459;51.416;5.502;2022-07-01T09:31:49;101365.28;;;18.57;59.47
51369;BME280;37459;51.416;5.502;2022-07-01T09:34:15;101365.28;;;18.57;61.01
51369;BME280;37459;51.416;5.502;2022-07-01T09:36:54;101371.56;;;18.57;61.63
51369;BME280;37459;51.416;5.502;2022-07-01T09:39:21;101366.25;;;18.67;62.32
51369;BME280;37459;51.416;5.502;2022-07-01T09:41:48;101366.56;;;18.88;61.39
51369;BME280;37459;51.416;5.502;2022-07-01T09:44:14;101370.69;;;18.91;60.81
51369;BME280;37459;51.416;5.502;2022-07-01T09:46:53;101368.34;;;18.99;59.84
51369;BME280;37459;51.416;5.502;2022-07-01T09:49:20;101377.53;;;18.93;59.17
51369;BME280;37459;51.416;5.502;2022-07-01T09:51:47;101379.22;;;18.77;59.77
51369;BME280;37459;51.416;5.502;2022-07-01T09:54:16;101372.72;;;18.78;59.67
51369;BME280;37459;51.416;5.502;2022-07-01T09:56:43;101373.03;;;18.82;62.67
51369;BME280;37459;51.416;5.502;2022-07-01T09:59:09;101379.84;;;19.01;57.59
51369;BME280;37459;51.416;5.502;2022-07-01T10:01:38;101374.00;;;19.15;60.26
51369;BME280;37459;51.416;5.502;2022-07-01T10:04:07;101379.00;;;19.23;58.66
51369;BME280;37459;51.416;5.502;2022-07-01T10:09:50;101394.53;;;19.66;59.51
51369;BME280;37459;51.416;5.502;2022-07-01T10:12:47;101387.81;;;19.74;58.86
51369;BME280;37459;51.416;5.502;2022-07-01T10:15:19;101393.59;;;19.56;57.29
51369;BME280;37459;51.416;5.502;2022-07-01T10:17:48;101396.53;;;19.49;58.17
51369;BME280;37459;51.416;5.502;2022-07-01T10:20:21;101401.34;;;19.64;58.39
51369;BME280;37459;51.416;5.502;2022-07-01T10:22:49;101415.16;;;19.74;57.82
51369;BME280;37459;51.416;5.502;2022-07-01T10:25:43;101414.78;;;19.93;56.63
51369;BME280;37459;51.416;5.502;2022-07-01T10:28:15;101414.66;;;19.77;54.13
51369;BME280;37459;51.416;5.502;2022-07-01T10:30:53;101413.19;;;19.97;56.53
51369;BME280;37459;51.416;5.502;2022-07-01T10:33:28;101409.13;;;20.31;58.52
51369;BME280;37459;51.416;5.502;2022-07-01T10:36:03;101417.41;;;20.74;53.60
51369;BME280;37459;51.416;5.502;2022-07-01T10:38:30;101407.19;;;20.64;53.28
51369;BME280;37459;51.416;5.502;2022-07-01T10:40:57;101418.69;;;21.04;54.03
51369;BME280;37459;51.416;5.502;2022-07-01T10:43:35;101407.09;;;21.49;50.00
51369;BME280;37459;51.416;5.502;2022-07-01T10:46:03;101414.56;;;21.90;50.13
51369;BME280;37459;51.416;5.502;2022-07-01T10:48:31;101409.13;;;22.21;47.27
51369;BME280;37459;51.416;5.502;2022-07-01T10:51:00;101408.03;;;22.42;47.39
51369;BME280;37459;51.416;5.502;2022-07-01T10:53:44;101409.09;;;22.72;46.31
51369;BME280;37459;51.416;5.502;2022-07-01T10:56:15;101397.16;;;23.17;48.85
51369;BME280;37459;51.416;5.502;2022-07-01T10:58:42;101420.97;;;23.37;45.31
51369;BME280;37459;51.416;5.502;2022-07-01T11:01:08;101408.75;;;23.64;45.25
51369;BME280;37459;51.416;5.502;2022-07-01T11:03:37;101405.13;;;23.79;45.16
51369;BME280;37459;51.416;5.502;2022-07-01T11:06:06;101402.16;;;24.05;44.83
51369;BME280;37459;51.416;5.502;2022-07-01T11:08:32;101411.38;;;24.24;43.04
51369;BME280;37459;51.416;5.502;2022-07-01T11:11:00;101404.22;;;24.23;44.62
51369;BME280;37459;51.416;5.502;2022-07-01T11:13:29;101397.16;;;24.41;42.33
51369;BME280;37459;51.416;5.502;2022-07-01T11:15:56;101391.56;;;24.22;42.10
51369;BME280;37459;51.416;5.502;2022-07-01T11:18:22;101384.25;;;24.07;42.39
51369;BME280;37459;51.416;5.502;2022-07-01T11:20:49;101397.66;;;23.74;45.19
51369;BME280;37459;51.416;5.502;2022-07-01T11:23:17;101394.22;;;24.03;43.55
51369;BME280;37459;51.416;5.502;2022-07-01T11:25:45;101386.00;;;23.48;44.08
51369;BME280;37459;51.416;5.502;2022-07-01T11:28:12;101392.13;;;23.35;44.76
51369;BME280;37459;51.416;5.502;2022-07-01T11:30:38;101395.28;;;23.63;42.72
51369;BME280;37459;51.416;5.502;2022-07-01T11:33:07;101392.44;;;23.78;42.46
51369;BME280;37459;51.416;5.502;2022-07-01T11:35:34;101382.75;;;23.41;43.41
51369;BME280;37459;51.416;5.502;2022-07-01T11:38:20;101399.94;;;23.12;45.12
51369;BME280;37459;51.416;5.502;2022-07-01T11:41:06;101389.41;;;23.25;43.71
51369;BME280;37459;51.416;5.502;2022-07-01T11:43:34;101389.38;;;23.35;45.31
51369;BME280;37459;51.416;5.502;2022-07-01T11:46:02;101381.09;;;23.40;42.16
51369;BME280;37459;51.416;5.502;2022-07-01T11:48:40;101378.94;;;23.32;42.92
51369;BME280;37459;51.416;5.502;2022-07-01T11:51:10;101390.41;;;23.49;43.88
51369;BME280;37459;51.416;5.502;2022-07-01T11:53:41;101385.44;;;23.46;42.92
51369;BME280;37459;51.416;5.502;2022-07-01T11:56:08;101386.94;;;23.33;44.10
51369;BME280;37459;51.416;5.502;2022-07-01T11:58:46;101376.06;;;22.92;43.88
51369;BME280;37459;51.416;5.502;2022-07-01T12:01:20;101384.63;;;22.75;44.23
51369;BME280;37459;51.416;5.502;2022-07-01T12:03:47;101384.06;;;22.79;46.57
51369;BME280;37459;51.416;5.502;2022-07-01T12:06:14;101388.50;;;22.64;46.52
51369;BME280;37459;51.416;5.502;2022-07-01T12:08:43;101367.63;;;22.53;47.80
51369;BME280;37459;51.416;5.502;2022-07-01T12:11:10;101386.91;;;22.43;46.70
51369;BME280;37459;51.416;5.502;2022-07-01T12:13:37;101379.75;;;22.37;45.98
51369;BME280;37459;51.416;5.502;2022-07-01T12:16:07;101380.88;;;22.25;46.63
51369;BME280;37459;51.416;5.502;2022-07-01T12:18:34;101384.69;;;22.24;48.24
51369;BME280;37459;51.416;5.502;2022-07-01T12:21:01;101383.56;;;22.05;47.41
51369;BME280;37459;51.416;5.502;2022-07-01T12:23:28;101389.66;;;22.22;48.37
51369;BME280;37459;51.416;5.502;2022-07-01T12:25:56;101396.22;;;22.21;47.93
51369;BME280;37459;51.416;5.502;2022-07-01T12:28:27;101396.75;;;22.13;49.90
51369;BME280;37459;51.416;5.502;2022-07-01T12:31:05;101399.78;;;22.01;49.66
51369;BME280;37459;51.416;5.502;2022-07-01T12:33:34;101396.16;;;21.75;47.97
51369;BME280;37459;51.416;5.502;2022-07-01T12:36:02;101395.56;;;21.52;49.22
51369;BME280;37459;51.416;5.502;2022-07-01T12:38:28;101396.44;;;21.58;50.03
51369;BME280;37459;51.416;5.502;2022-07-01T12:40:56;101398.88;;;21.54;50.87
51369;BME280;37459;51.416;5.502;2022-07-01T12:43:24;101404.06;;;21.46;48.66
51369;BME280;37459;51.416;5.502;2022-07-01T12:45:54;101402.72;;;21.59;49.30
51369;BME280;37459;51.416;5.502;2022-07-01T12:48:20;101398.91;;;21.65;50.92
51369;BME280;37459;51.416;5.502;2022-07-01T12:50:47;101389.00;;;21.53;49.96
51369;BME280;37459;51.416;5.502;2022-07-01T12:53:18;101392.28;;;21.45;49.89